Elmswell, United Kingdom
Current Conditions -  °F | °C
As of 8:50 AM on Monday 24 Nov 2014 (Local Time) from EGUW Reporting Station
Clear Clear  
Wind Chill: -1°   Ceiling: Unl
Heat Index:   Visibility: 6mi
Dew Point:   Wind: 7mph
Humidity: 93%   Direction: 240°WSW
Pressure: 30.3"   Gusts: NA
Location:  52.24°N, 0.91°E
Report Text: EGUW 240850Z 24006KT CAVOK 02/01 Q1026 BLU NOSIG
Loading
Personal Weather Stations






























Interactive Weather Map New forecast layout! Learn more

10-Day Weather Forecast

Advertisements
Track Severe Weather on mobile